Bom Jardim da Serra, Brazil
Current Conditions -  °F | °C
As of 8:20 PM on Saturday 22 Nov 2014 (Local Time) from SBCM Reporting Station
Broken Clouds Broken Clouds  
Wind Chill: 75°   Ceiling: 3000
Heat Index: 75°   Visibility: 6mi
Dew Point: 64°   Wind: 6mph
Humidity: 69%   Direction: 90°E
Pressure: 29.83"   Gusts: NA
Location:  28.34°S, 49.62°W
Report Text: SBCM 222220Z 09005KT 9999 BKN030 24/18 Q1010
Loading
Personal Weather Stations






























Interactive Weather Map New forecast layout! Learn more

10-Day Weather Forecast

Advertisements
Track Severe Weather on mobile